RYR8PF LBBG-EPMO
Flight info
| Callsign | RYR8PF |
|---|---|
| Flight time | N/A |
| Altitude | 38000 |
| Route | ARNOV T226 ETUBA DCT UTEKA DCT DONIV DCT PARAK DCT PITOK DCT KELEL DCT LOGDA |
| Aircraft | B738/M-SDE2E3FGHIRWXY/LB1 |
Departure
| Time | 2026-05-06 16:37 |
|---|---|
| Airport | Burgas Airport (LBBG) |
Arrival
| Time | N/A |
|---|---|
| Airport | Warsaw Modlin Airport (EPMO) |
| Time | Latitude | Longitude | Altitude | Speed | Heading |
|---|---|---|---|---|---|
| 2026-05-06 15:58 | 42.56647 | 27.51413 | 172 ft | 0 kts | 3° |
| 2026-05-06 16:30 | 42.56628 | 27.51412 | 172 ft | 3 kts | 354° |
| 2026-05-06 16:30 | 42.56609 | 27.51417 | 172 ft | 3 kts | 335° |
| 2026-05-06 16:31 | 42.56594 | 27.51431 | 172 ft | 3 kts | 299° |
| 2026-05-06 16:31 | 42.56590 | 27.51448 | 172 ft | 2 kts | 237° |
| 2026-05-06 16:31 | 42.56594 | 27.51456 | 172 ft | 1 kts | 229° |
| 2026-05-06 16:31 | 42.56595 | 27.51457 | 172 ft | 0 kts | 229° |
| 2026-05-06 16:33 | 42.56594 | 27.51457 | 172 ft | 1 kts | 229° |
| 2026-05-06 16:34 | 42.56475 | 27.51268 | 172 ft | 21 kts | 229° |
| 2026-05-06 16:34 | 42.56364 | 27.51102 | 172 ft | 25 kts | 228° |
| 2026-05-06 16:34 | 42.56248 | 27.50930 | 172 ft | 24 kts | 227° |
| 2026-05-06 16:34 | 42.56140 | 27.50767 | 172 ft | 23 kts | 228° |
| 2026-05-06 16:35 | 42.56036 | 27.50610 | 172 ft | 22 kts | 228° |
| 2026-05-06 16:35 | 42.55934 | 27.50458 | 172 ft | 21 kts | 227° |
| 2026-05-06 16:35 | 42.55850 | 27.50302 | 172 ft | 21 kts | 263° |
| 2026-05-06 16:35 | 42.55953 | 27.50210 | 171 ft | 20 kts | 0° |
| 2026-05-06 16:36 | 42.56074 | 27.50285 | 172 ft | 20 kts | 44° |
| 2026-05-06 16:36 | 42.56290 | 27.50571 | 174 ft | 78 kts | 44° |
| 2026-05-06 16:36 | 42.56846 | 27.51308 | 173 ft | 143 kts | 44° |
| 2026-05-06 16:36 | 42.57651 | 27.52388 | 497 ft | 170 kts | 47° |
| 2026-05-06 16:37 | 42.58505 | 27.53516 | 1391 ft | 174 kts | 40° |
| 2026-05-06 16:37 | 42.59575 | 27.54314 | 2145 ft | 184 kts | 26° |
| 2026-05-06 16:37 | 42.60810 | 27.55135 | 2493 ft | 210 kts | 29° |
| 2026-05-06 16:37 | 42.62288 | 27.55684 | 2665 ft | 239 kts | 356° |
| 2026-05-06 16:38 | 42.63888 | 27.54769 | 2942 ft | 269 kts | 320° |
| 2026-05-06 16:38 | 42.64967 | 27.52558 | 3216 ft | 298 kts | 291° |
| 2026-05-06 16:38 | 42.65493 | 27.49739 | 3719 ft | 314 kts | 282° |
| 2026-05-06 16:38 | 42.65861 | 27.46795 | 4565 ft | 316 kts | 282° |
| 2026-05-06 16:39 | 42.66242 | 27.43860 | 5442 ft | 317 kts | 282° |
| 2026-05-06 16:39 | 42.66632 | 27.40888 | 6265 ft | 321 kts | 283° |
| 2026-05-06 16:39 | 42.67032 | 27.37853 | 6844 ft | 330 kts | 283° |
| 2026-05-06 16:39 | 42.67432 | 27.34797 | 7472 ft | 336 kts | 283° |
| 2026-05-06 16:40 | 42.67845 | 27.31636 | 8187 ft | 340 kts | 283° |
| 2026-05-06 16:40 | 42.68259 | 27.28440 | 8877 ft | 345 kts | 283° |
| 2026-05-06 16:40 | 42.68677 | 27.25203 | 9558 ft | 350 kts | 283° |
| 2026-05-06 16:40 | 42.69099 | 27.21925 | 10252 ft | 353 kts | 283° |
| 2026-05-06 16:41 | 42.69523 | 27.18621 | 10949 ft | 355 kts | 283° |
| 2026-05-06 16:41 | 42.69948 | 27.15296 | 11612 ft | 359 kts | 283° |
| 2026-05-06 16:41 | 42.70379 | 27.11927 | 12289 ft | 363 kts | 283° |
| 2026-05-06 16:41 | 42.70813 | 27.08516 | 12988 ft | 367 kts | 283° |
| 2026-05-06 16:42 | 42.71250 | 27.05080 | 13706 ft | 371 kts | 283° |